Nefterudovoz-47m — UFFP — position and weather

sailwx.info

Track history (hours):
 
Tides and Currents Weather Stations Pressure Air Temp Water Temp Dewpoint Dewpoint Depression Visibility Wind Speed Wind Dir Waves Ship Positions

Nefterudovoz-47m

Last reported at 2017-Jul-23 00:12 UTC. Time now 2017-Jul-24 04:50 UTC.
Position N 45°28' E 036°43'.

Length 119 m; draft 2.6 m.

Type: Tanker. MMSI: 273347800.

Date/timePositionNaut miles runAvg speedWind from/ knotsBaromVisibWave heightAir tempDewpointWater temp
2017-Jul-23 00:12N 45°28' E 036°43'3 7.3
2017-Jul-22 23:49N 45°26' E 036°41'2 7.6
2017-Jul-22 23:30N 45°23' E 036°41'3 6.6
2017-Jul-22 23:00N 45°20' E 036°38'3 6.4
2017-Jul-22 22:30N 45°19' E 036°34'4 7.2
2017-Jul-22 21:57N 45°17' E 036°29'1 3.1
2017-Jul-22 21:30N 45°16' E 036°29'1 0.4
2017-Jul-22 18:50N 45°15' E 036°29'1 0.5
2017-Jul-22 16:52N 45°14' E 036°30'0 0.0
2017-Jul-22 16:25N 45°14' E 036°30'0 0.0
2017-Jul-22 15:55N 45°14' E 036°30'0 0.1
2017-Jul-22 15:28N 45°14' E 036°30'0 0.0
2017-Jul-22 14:58N 45°14' E 036°30'0 0.0
2017-Jul-22 13:58N 45°14' E 036°30'0 0.0
2017-Jul-22 13:25N 45°14' E 036°30'0 0.0
2017-Jul-22 12:58N 45°14' E 036°30'0 0.0
2017-Jul-22 12:28N 45°14' E 036°30'0 0.0
2017-Jul-22 11:58N 45°14' E 036°30'0 0.0
2017-Jul-22 11:25N 45°14' E 036°30'0 0.0
2017-Jul-22 10:49N 45°14' E 036°30'0 0.0
2017-Jul-22 10:28N 45°14' E 036°30'0 0.0
2017-Jul-22 09:16N 45°14' E 036°30'0 0.0
2017-Jul-22 08:43N 45°14' E 036°30'0 0.0
2017-Jul-22 08:13N 45°14' E 036°30'0 0.1
2017-Jul-22 07:58N 45°14' E 036°30'0 0.0
2017-Jul-22 07:25N 45°14' E 036°30'0 0.0
2017-Jul-22 06:49N 45°14' E 036°30'0 0.0
2017-Jul-22 06:16N 45°14' E 036°30'0 0.0
2017-Jul-22 05:46N 45°14' E 036°30'0 0.0
2017-Jul-22 05:25N 45°14' E 036°30'0 0.0
2017-Jul-22 04:55N 45°14' E 036°30'0 0.0
2017-Jul-22 04:25N 45°14' E 036°30'0 0.0
2017-Jul-22 03:55N 45°14' E 036°30'0 0.0
2017-Jul-22 03:28N 45°14' E 036°30'0 0.0
2017-Jul-22 02:58N 45°14' E 036°30'0 0.0
2017-Jul-22 02:28N 45°14' E 036°30'0 0.0
2017-Jul-22 01:58N 45°14' E 036°30'0 0.0
2017-Jul-22 01:28N 45°14' E 036°30'0 0.0
2017-Jul-22 00:55N 45°14' E 036°30'0 0.0
2017-Jul-22 00:25N 45°14' E 036°30'0 0.0
2017-Jul-21 23:52N 45°14' E 036°30'0 0.0
2017-Jul-21 23:28N 45°14' E 036°30'0 0.0
2017-Jul-21 22:58N 45°14' E 036°30'0 0.0
2017-Jul-21 22:25N 45°14' E 036°30'0 0.0
2017-Jul-21 21:58N 45°14' E 036°30'0 0.3
2017-Jul-21 21:30N 45°14' E 036°30'3 6.2
2017-Jul-21 21:00N 45°11' E 036°28'228 4.8
2017-Jul-19 21:33N 46°09' E 031°12'1 7.4
2017-Jul-19 21:29N 46°10' E 031°12'5 7.5
2017-Jul-19 20:51N 46°14' E 031°10'3 7.7
2017-Jul-19 20:28N 46°17' E 031°09'5 7.4
2017-Jul-19 19:44N 46°21' E 031°05'2 7.4
2017-Jul-19 19:30N 46°23' E 031°03'4 7.7
2017-Jul-19 19:00N 46°27' E 031°03'4 7.6
2017-Jul-19 18:29N 46°30' E 031°02'3 6.7
2017-Jul-19 17:59N 46°34' E 031°03'3 6.7
2017-Jul-19 17:30N 46°35' E 031°07'  
Track history (hours):
 
Tides and Currents Weather Stations Pressure Air Temp Water Temp Dewpoint Dewpoint Depression Visibility Wind Speed Wind Dir Waves Ship Positions

Nefterudovoz-47m

Last reported at 2017-Jul-23 00:12 UTC. Time now 2017-Jul-24 04:50 UTC.
Position N 45°28' E 036°43'.

Length 119 m; draft 2.6 m.

Type: Tanker. MMSI: 273347800.

Date/timePositionNaut miles runAvg speedWind from/ knotsBaromVisibWave heightAir tempDewpointWater temp
2017-Jul-23 00:12N 45°28' E 036°43'3 7.3
2017-Jul-22 23:49N 45°26' E 036°41'2 7.6
2017-Jul-22 23:30N 45°23' E 036°41'3 6.6
2017-Jul-22 23:00N 45°20' E 036°38'3 6.4
2017-Jul-22 22:30N 45°19' E 036°34'4 7.2
2017-Jul-22 21:57N 45°17' E 036°29'1 3.1
2017-Jul-22 21:30N 45°16' E 036°29'1 0.4
2017-Jul-22 18:50N 45°15' E 036°29'1 0.5
2017-Jul-22 16:52N 45°14' E 036°30'0 0.0
2017-Jul-22 16:25N 45°14' E 036°30'0 0.0
2017-Jul-22 15:55N 45°14' E 036°30'0 0.1
2017-Jul-22 15:28N 45°14' E 036°30'0 0.0
2017-Jul-22 14:58N 45°14' E 036°30'0 0.0
2017-Jul-22 13:58N 45°14' E 036°30'0 0.0
2017-Jul-22 13:25N 45°14' E 036°30'0 0.0
2017-Jul-22 12:58N 45°14' E 036°30'0 0.0
2017-Jul-22 12:28N 45°14' E 036°30'0 0.0
2017-Jul-22 11:58N 45°14' E 036°30'0 0.0
2017-Jul-22 11:25N 45°14' E 036°30'0 0.0
2017-Jul-22 10:49N 45°14' E 036°30'0 0.0
2017-Jul-22 10:28N 45°14' E 036°30'0 0.0
2017-Jul-22 09:16N 45°14' E 036°30'0 0.0
2017-Jul-22 08:43N 45°14' E 036°30'0 0.0
2017-Jul-22 08:13N 45°14' E 036°30'0 0.1
2017-Jul-22 07:58N 45°14' E 036°30'0 0.0
2017-Jul-22 07:25N 45°14' E 036°30'0 0.0
2017-Jul-22 06:49N 45°14' E 036°30'0 0.0
2017-Jul-22 06:16N 45°14' E 036°30'0 0.0
2017-Jul-22 05:46N 45°14' E 036°30'0 0.0
2017-Jul-22 05:25N 45°14' E 036°30'0 0.0
2017-Jul-22 04:55N 45°14' E 036°30'0 0.0
2017-Jul-22 04:25N 45°14' E 036°30'0 0.0
2017-Jul-22 03:55N 45°14' E 036°30'0 0.0
2017-Jul-22 03:28N 45°14' E 036°30'0 0.0
2017-Jul-22 02:58N 45°14' E 036°30'0 0.0
2017-Jul-22 02:28N 45°14' E 036°30'0 0.0
2017-Jul-22 01:58N 45°14' E 036°30'0 0.0
2017-Jul-22 01:28N 45°14' E 036°30'0 0.0
2017-Jul-22 00:55N 45°14' E 036°30'0 0.0
2017-Jul-22 00:25N 45°14' E 036°30'0 0.0
2017-Jul-21 23:52N 45°14' E 036°30'0 0.0
2017-Jul-21 23:28N 45°14' E 036°30'0 0.0
2017-Jul-21 22:58N 45°14' E 036°30'0 0.0
2017-Jul-21 22:25N 45°14' E 036°30'0 0.0
2017-Jul-21 21:58N 45°14' E 036°30'0 0.3
2017-Jul-21 21:30N 45°14' E 036°30'3 6.2
2017-Jul-21 21:00N 45°11' E 036°28'228 4.8
2017-Jul-19 21:33N 46°09' E 031°12'1 7.4
2017-Jul-19 21:29N 46°10' E 031°12'5 7.5
2017-Jul-19 20:51N 46°14' E 031°10'3 7.7
2017-Jul-19 20:28N 46°17' E 031°09'5 7.4
2017-Jul-19 19:44N 46°21' E 031°05'2 7.4
2017-Jul-19 19:30N 46°23' E 031°03'4 7.7
2017-Jul-19 19:00N 46°27' E 031°03'4 7.6
2017-Jul-19 18:29N 46°30' E 031°02'3 6.7
2017-Jul-19 17:59N 46°34' E 031°03'3 6.7
2017-Jul-19 17:30N 46°35' E 031°07'  

Dump ship's entire track history